Time;durP1;ratioP1;P1;durP2;ratioP2;P2;SDS_P1;SDS_P2;PMS_P1;PMS_P2;Temp;Humidity;BMP_temperature;BMP_pressure;BME280_temperature;BME280_humidity;BME280_pressure;Samples;Min_cycle;Max_cycle;Signal;HPM_P1;HPM_P2
2023/01/15 00:01:23;;;;;;;26.40;14.98;;;;;;;-142.91;100.00;56616.03;4990648;28;21823;-67
2023/01/15 00:03:50;;;;;;;28.90;16.47;;;;;;;-142.91;100.00;56616.03;4990179;28;22211;-68
2023/01/15 00:06:19;;;;;;;24.42;14.43;;;;;;;-142.91;100.00;56616.03;4990406;28;20681;-69
2023/01/15 00:08:46;;;;;;;23.50;14.38;;;;;;;-142.91;100.00;56616.03;4989396;28;20204;-71
2023/01/15 00:11:13;;;;;;;24.13;14.70;;;;;;;-142.91;100.00;56616.03;4989860;28;20211;-69
2023/01/15 00:13:40;;;;;;;24.27;15.37;;;;;;;-142.91;100.00;56616.03;4990184;28;20207;-69
2023/01/15 00:16:09;;;;;;;27.25;14.55;;;;;;;-142.91;100.00;56616.03;4990321;28;20204;-67
2023/01/15 00:18:36;;;;;;;22.75;14.13;;;;;;;-142.91;100.00;56616.03;4987914;28;20208;-67
2023/01/15 00:21:06;;;;;;;23.38;13.90;;;;;;;-142.91;100.00;56616.03;4988106;28;20290;-67
2023/01/15 00:29:06;;;;;;;20.67;13.60;;;;;;;-142.91;100.00;56616.03;4989542;28;20257;-69
2023/01/15 00:31:35;;;;;;;20.02;13.98;;;;;;;-142.91;100.00;56616.03;4989496;28;20207;-70
2023/01/15 00:34:02;;;;;;;24.42;15.13;;;;;;;-142.91;100.00;56616.03;4988943;28;20200;-69
2023/01/15 00:36:29;;;;;;;23.13;14.52;;;;;;;-142.91;100.00;56616.03;4988781;28;20211;-67
2023/01/15 00:38:57;;;;;;;21.25;14.32;;;;;;;-142.91;100.00;56616.03;4986063;28;20239;-68
2023/01/15 00:41:24;;;;;;;27.05;14.60;;;;;;;-142.91;100.00;56616.03;4987986;28;20231;-68
2023/01/15 00:43:51;;;;;;;24.10;15.53;;;;;;;-142.91;100.00;56616.03;4988276;28;20208;-66
2023/01/15 00:46:18;;;;;;;22.48;14.30;;;;;;;-142.91;100.00;56616.03;4986714;28;20202;-69
2023/01/15 00:48:45;;;;;;;20.92;13.88;;;;;;;-142.91;100.00;56616.03;4990208;28;20211;-67
2023/01/15 00:51:12;;;;;;;23.23;15.30;;;;;;;-142.91;100.00;56616.03;4989188;28;20215;-68
2023/01/15 00:53:39;;;;;;;25.60;14.88;;;;;;;-142.91;100.00;56616.03;4988341;28;20214;-67
2023/01/15 00:56:07;;;;;;;24.42;14.18;;;;;;;-142.91;100.00;56616.03;4987347;28;20214;-66
2023/01/15 00:58:34;;;;;;;22.00;13.50;;;;;;;-142.91;100.00;56616.03;4988786;28;20345;-65
2023/01/15 01:01:01;;;;;;;25.08;14.05;;;;;;;-142.91;100.00;56616.03;4989178;28;20744;-65
2023/01/15 01:03:28;;;;;;;24.02;14.48;;;;;;;-142.91;100.00;56616.03;4989164;28;22191;-67
2023/01/15 01:06:00;;;;;;;23.48;14.60;;;;;;;-142.91;100.00;56616.03;4989593;28;20199;-66
2023/01/15 01:08:27;;;;;;;22.98;13.30;;;;;;;-142.91;100.00;56616.03;4988799;28;20310;-67
2023/01/15 01:11:01;;;;;;;20.27;13.25;;;;;;;-142.91;100.00;56616.03;4987751;28;20290;-68
2023/01/15 01:13:30;;;;;;;23.02;12.82;;;;;;;-142.91;100.00;56616.03;4989061;28;20207;-68
2023/01/15 01:15:56;;;;;;;18.73;12.40;;;;;;;-142.91;100.00;56616.03;4987948;28;20200;-68
2023/01/15 01:18:23;;;;;;;19.83;13.23;;;;;;;-142.91;100.00;56616.03;4984883;28;20212;-68
2023/01/15 01:20:50;;;;;;;22.65;13.65;;;;;;;-142.91;100.00;56616.03;4987368;28;20226;-69
2023/01/15 01:23:17;;;;;;;18.98;12.15;;;;;;;-142.91;100.00;56616.03;4989459;28;21824;-69
2023/01/15 01:25:44;;;;;;;19.65;12.20;;;;;;;-142.91;100.00;56616.03;4988968;28;20481;-67
2023/01/15 01:28:11;;;;;;;18.20;12.35;;;;;;;-142.91;100.00;56616.03;4982530;28;20333;-67
2023/01/15 01:30:39;;;;;;;17.52;11.70;;;;;;;-142.91;100.00;56616.03;4985094;28;21054;-69
2023/01/15 01:33:07;;;;;;;18.08;11.40;;;;;;;-142.91;100.00;56616.03;4987933;28;20211;-67
2023/01/15 01:35:34;;;;;;;16.73;11.40;;;;;;;-142.91;100.00;56616.03;4987417;28;20222;-67
2023/01/15 01:38:01;;;;;;;15.63;11.15;;;;;;;-142.91;100.00;56616.03;4985696;28;20222;-70
2023/01/15 01:40:27;;;;;;;16.60;11.45;;;;;;;-142.91;100.00;56616.03;4985675;28;20269;-67
2023/01/15 01:42:54;;;;;;;16.75;10.82;;;;;;;-142.91;100.00;56616.03;4985775;28;20215;-67
2023/01/15 01:45:25;;;;;;;15.45;10.73;;;;;;;-142.91;100.00;56616.03;4985741;28;22048;-69
2023/01/15 01:47:56;;;;;;;18.25;11.65;;;;;;;-142.91;100.00;56616.03;4987466;28;20204;-68
2023/01/15 01:50:23;;;;;;;22.75;11.40;;;;;;;-142.91;100.00;56616.03;4986831;28;20322;-67
2023/01/15 01:52:55;;;;;;;16.15;11.02;;;;;;;-142.91;100.00;56616.03;4989105;28;20265;-68
2023/01/15 01:55:24;;;;;;;16.20;10.85;;;;;;;-142.91;100.00;56616.03;4986963;28;20781;-68
2023/01/15 01:57:54;;;;;;;14.98;10.88;;;;;;;-142.91;100.00;56616.03;4987101;28;20238;-63
2023/01/15 02:00:23;;;;;;;18.20;11.13;;;;;;;-142.91;100.00;56616.03;4988119;28;20232;-68
2023/01/15 02:02:52;;;;;;;16.98;11.48;;;;;;;-142.91;100.00;56616.03;4988724;28;20212;-68
2023/01/15 02:05:28;;;;;;;16.08;10.60;;;;;;;-142.91;100.00;56616.03;4987907;28;20214;-69
2023/01/15 02:07:55;;;;;;;18.23;11.85;;;;;;;-142.91;100.00;56616.03;4985438;28;20217;-67
2023/01/15 02:10:22;;;;;;;16.67;11.68;;;;;;;-142.91;100.00;56616.03;4985122;28;20715;-67
2023/01/15 02:12:56;;;;;;;15.40;10.70;;;;;;;-142.91;100.00;56616.03;4985830;28;20216;-68
2023/01/15 02:15:29;;;;;;;16.85;11.38;;;;;;;-142.91;100.00;56616.03;4984694;28;20212;-67
2023/01/15 02:18:06;;;;;;;17.10;11.68;;;;;;;-142.91;100.00;56616.03;4985312;28;20237;-67
2023/01/15 02:20:39;;;;;;;18.25;12.30;;;;;;;-142.91;100.00;56616.03;4986181;28;20227;-67
2023/01/15 02:23:48;;;;;;;18.02;12.43;;;;;;;-142.91;100.00;56616.03;4986088;28;20214;-66
2023/01/15 02:26:55;;;;;;;15.18;10.95;;;;;;;-142.91;100.00;56616.03;4954082;28;20624;-68
2023/01/15 02:29:30;;;;;;;22.58;11.98;;;;;;;-142.91;100.00;56616.03;4955155;28;20207;-69
2023/01/15 02:32:01;;;;;;;15.63;10.55;;;;;;;-142.91;100.00;56616.03;4985240;28;20789;-67
2023/01/15 02:34:33;;;;;;;16.85;12.00;;;;;;;-142.91;100.00;56616.03;4990120;28;20210;-67
2023/01/15 02:37:05;;;;;;;18.17;12.77;;;;;;;-142.91;100.00;56616.03;4987969;28;20291;-67
2023/01/15 02:39:35;;;;;;;19.98;11.50;;;;;;;-142.91;100.00;56616.03;4987667;28;20235;-66
2023/01/15 02:42:06;;;;;;;15.90;11.05;;;;;;;-142.91;100.00;56616.03;4989870;28;20218;-67
2023/01/15 02:44:37;;;;;;;17.05;11.10;;;;;;;-142.91;100.00;56616.03;4989376;28;20280;-67
2023/01/15 02:47:05;;;;;;;16.83;12.07;;;;;;;-142.91;100.00;56616.03;4990566;28;20543;-67
2023/01/15 02:49:33;;;;;;;14.80;11.05;;;;;;;-142.91;100.00;56616.03;4990169;28;20207;-68
2023/01/15 02:52:03;;;;;;;14.00;11.10;;;;;;;-142.91;100.00;56616.03;4990638;28;20207;-67
2023/01/15 02:54:37;;;;;;;18.38;12.57;;;;;;;-142.91;100.00;56616.03;4990991;28;20199;-66
2023/01/15 02:57:05;;;;;;;19.83;11.57;;;;;;;-142.91;100.00;56616.03;4991059;28;20265;-68
2023/01/15 02:59:38;;;;;;;18.38;11.63;;;;;;;-142.91;100.00;56616.03;4988302;28;20728;-67
2023/01/15 03:02:10;;;;;;;18.92;12.10;;;;;;;-142.91;100.00;56616.03;4990378;28;20239;-66
2023/01/15 03:04:43;;;;;;;19.25;11.98;;;;;;;-142.91;100.00;56616.03;4990647;28;20252;-66
2023/01/15 03:07:15;;;;;;;18.48;12.27;;;;;;;-142.91;100.00;56616.03;4991668;28;20220;-67
2023/01/15 03:09:42;;;;;;;19.55;12.00;;;;;;;-142.91;100.00;56616.03;4989647;28;20299;-65
2023/01/15 03:12:15;;;;;;;18.50;12.30;;;;;;;-142.91;100.00;56616.03;4990462;28;20211;-67
2023/01/15 03:14:49;;;;;;;19.13;12.55;;;;;;;-142.91;100.00;56616.03;4991629;28;20211;-68
2023/01/15 03:17:19;;;;;;;19.80;13.18;;;;;;;-142.91;100.00;56616.03;4991346;28;20287;-68
2023/01/15 03:19:51;;;;;;;20.10;13.03;;;;;;;-142.91;100.00;56616.03;4990279;28;20199;-68
2023/01/15 03:22:23;;;;;;;21.17;13.40;;;;;;;-142.91;100.00;56616.03;4989897;28;22262;-68
2023/01/15 03:24:54;;;;;;;22.20;13.30;;;;;;;-142.91;100.00;56616.03;4990558;28;20211;-69
2023/01/15 03:27:23;;;;;;;22.00;13.20;;;;;;;-142.91;100.00;56616.03;4990359;28;20203;-67
2023/01/15 03:29:54;;;;;;;19.60;12.95;;;;;;;-142.91;100.00;56616.03;4988790;28;20204;-67
2023/01/15 03:32:22;;;;;;;20.20;12.07;;;;;;;-142.91;100.00;56616.03;4990106;28;20317;-66
2023/01/15 03:34:51;;;;;;;18.33;12.13;;;;;;;-142.91;100.00;56616.03;4990879;28;21181;-67
2023/01/15 03:37:19;;;;;;;19.30;12.20;;;;;;;-142.91;100.00;56616.03;4990618;28;20204;-67
2023/01/15 03:39:47;;;;;;;21.73;12.60;;;;;;;-142.91;100.00;56616.03;4988704;28;20243;-67
2023/01/15 03:42:29;;;;;;;20.38;12.27;;;;;;;-142.91;100.00;56616.03;4990127;28;20270;-71
2023/01/15 03:45:07;;;;;;;20.55;13.38;;;;;;;-142.91;100.00;56616.03;4988408;28;20206;-67
2023/01/15 03:47:45;;;;;;;21.73;12.88;;;;;;;-142.91;100.00;56616.03;4989875;28;20673;-68
2023/01/15 03:50:22;;;;;;;14.77;11.43;;;;;;;-142.91;100.00;56616.03;4989511;28;20196;-67
2023/01/15 03:53:00;;;;;;;16.58;11.38;;;;;;;-142.91;100.00;56616.03;4990058;28;20619;-68
2023/01/15 03:55:37;;;;;;;18.20;12.20;;;;;;;-142.91;100.00;56616.03;4989613;28;20218;-65
2023/01/15 03:58:11;;;;;;;18.90;11.90;;;;;;;-142.91;100.00;56616.03;4990395;28;20203;-67
2023/01/15 04:00:43;;;;;;;22.48;12.32;;;;;;;-142.91;100.00;56616.03;4987885;28;20880;-70
2023/01/15 04:03:12;;;;;;;18.33;12.27;;;;;;;-142.91;100.00;56616.03;4988164;28;20203;-67
2023/01/15 04:05:40;;;;;;;16.85;11.40;;;;;;;-142.91;100.00;56616.03;4989089;28;20207;-68
2023/01/15 04:08:08;;;;;;;18.98;12.10;;;;;;;-142.91;100.00;56616.03;4989575;28;20208;-67
2023/01/15 04:10:35;;;;;;;17.17;11.88;;;;;;;-142.91;100.00;56616.03;4989193;28;20196;-67
2023/01/15 04:13:02;;;;;;;18.75;12.95;;;;;;;-142.91;100.00;56616.03;4990927;28;20258;-67
2023/01/15 04:15:30;;;;;;;19.20;11.55;;;;;;;-142.91;100.00;56616.03;4991104;28;20776;-69
2023/01/15 04:17:57;;;;;;;17.50;11.85;;;;;;;-142.91;100.00;56616.03;4989992;28;20630;-68
2023/01/15 04:20:23;;;;;;;14.55;10.80;;;;;;;-142.91;100.00;56616.03;4989204;28;20208;-66
2023/01/15 04:22:50;;;;;;;16.17;10.63;;;;;;;-142.91;100.00;56616.03;4990599;28;20663;-68
2023/01/15 04:25:17;;;;;;;14.25;10.18;;;;;;;-142.91;100.00;56616.03;4991493;28;20207;-67
2023/01/15 04:27:44;;;;;;;14.75;11.13;;;;;;;-142.91;100.00;56616.03;4990231;28;20200;-66
2023/01/15 04:30:12;;;;;;;20.15;12.35;;;;;;;-142.91;100.00;56616.03;4989551;28;20215;-68
2023/01/15 04:32:40;;;;;;;16.83;10.75;;;;;;;-142.91;100.00;56616.03;4988511;28;20228;-68
2023/01/15 04:35:07;;;;;;;14.13;9.45;;;;;;;-142.91;100.00;56616.03;4990206;28;20207;-67
2023/01/15 04:37:34;;;;;;;14.27;10.68;;;;;;;-142.91;100.00;56616.03;4990038;28;20218;-68
2023/01/15 04:40:01;;;;;;;13.45;10.65;;;;;;;-142.91;100.00;56616.03;4988124;28;20281;-68
2023/01/15 04:45:12;;;;;;;13.90;10.68;;;;;;;-142.91;100.00;56616.03;4988857;28;20203;-67
2023/01/15 04:47:40;;;;;;;20.08;11.35;;;;;;;-142.91;100.00;56616.03;4990046;28;20309;-68
2023/01/15 04:50:08;;;;;;;18.40;11.68;;;;;;;-142.91;100.00;56616.03;4988361;28;20684;-67
2023/01/15 04:52:34;;;;;;;15.63;10.15;;;;;;;-142.91;100.00;56616.03;4989716;28;20192;-66
2023/01/15 04:55:01;;;;;;;15.93;9.85;;;;;;;-142.91;100.00;56616.03;4988906;28;20207;-69
2023/01/15 04:57:28;;;;;;;20.60;11.10;;;;;;;-142.91;100.00;56616.03;4989101;28;20292;-68
2023/01/15 04:59:55;;;;;;;14.23;9.73;;;;;;;-142.91;100.00;56616.03;4988599;28;20211;-67
2023/01/15 05:02:21;;;;;;;16.35;9.55;;;;;;;-142.91;100.00;56616.03;4987821;28;20251;-68
2023/01/15 05:04:49;;;;;;;16.00;10.15;;;;;;;-142.91;100.00;56616.03;4988481;28;20208;-68
2023/01/15 05:07:16;;;;;;;15.35;10.05;;;;;;;-142.91;100.00;56616.03;4989384;28;20211;-67
2023/01/15 05:09:43;;;;;;;14.38;9.30;;;;;;;-142.91;100.00;56616.03;4989329;28;20203;-66
2023/01/15 05:12:10;;;;;;;10.95;8.70;;;;;;;-142.91;100.00;56616.03;4988555;28;20210;-68
2023/01/15 05:14:36;;;;;;;16.50;9.88;;;;;;;-142.91;100.00;56616.03;4987647;28;20677;-68
2023/01/15 05:17:13;;;;;;;11.98;8.73;;;;;;;5.86;73.23;95449.72;5043768;27;20717;-69
2023/01/15 05:19:40;;;;;;;13.13;9.38;;;;;;;5.76;73.11;95454.00;5043202;28;20214;-69
2023/01/15 05:22:07;;;;;;;10.27;8.45;;;;;;;5.59;73.58;95446.59;5043713;28;20952;-69
2023/01/15 05:24:34;;;;;;;13.43;9.40;;;;;;;5.51;74.55;95453.38;5043719;28;20296;-68
2023/01/15 05:27:01;;;;;;;12.63;8.15;;;;;;;5.48;74.13;95449.19;5043992;28;20520;-69
2023/01/15 05:29:28;;;;;;;19.08;9.13;;;;;;;5.48;74.06;95449.19;5044238;28;20268;-69
2023/01/15 05:31:55;;;;;;;12.95;9.57;;;;;;;5.41;74.68;95452.63;5044501;28;20212;-69
2023/01/15 05:34:23;;;;;;;13.73;9.20;;;;;;;5.37;74.44;95456.00;5042531;28;20631;-69
2023/01/15 05:36:49;;;;;;;14.50;9.90;;;;;;;5.37;74.24;95448.47;5042889;28;20217;-68
2023/01/15 05:39:16;;;;;;;18.20;10.93;;;;;;;5.40;74.06;95450.97;5035209;28;20616;-69
2023/01/15 05:41:49;;;;;;;14.77;9.60;;;;;;;5.44;73.75;95454.28;5023661;28;20533;-68
2023/01/15 05:44:17;;;;;;;16.50;10.43;;;;;;;5.46;74.41;95450.88;5022835;28;20202;-68
2023/01/15 05:46:44;;;;;;;19.17;10.75;;;;;;;5.48;74.80;95459.28;5021810;28;20207;-68
2023/01/15 05:49:14;;;;;;;14.57;9.77;;;;;;;5.45;74.91;95461.81;5023042;28;20260;-67
2023/01/15 05:51:43;;;;;;;12.25;9.52;;;;;;;5.44;74.98;95460.13;5022639;28;20226;-70
2023/01/15 05:54:12;;;;;;;21.75;12.93;;;;;;;5.43;74.80;95465.22;5019465;28;20510;-68
2023/01/15 05:56:40;;;;;;;18.02;11.85;;;;;;;5.39;74.39;95454.31;5021966;28;20281;-68
2023/01/15 05:59:07;;;;;;;17.27;11.10;;;;;;;5.17;74.79;95435.16;5023153;28;20203;-68
2023/01/15 06:01:34;;;;;;;18.77;12.32;;;;;;;5.29;74.78;95470.34;5022419;28;20215;-69
2023/01/15 06:04:02;;;;;;;14.20;10.05;;;;;;;5.32;75.07;95470.31;5020915;28;20206;-69
2023/01/15 06:06:29;;;;;;;15.93;10.77;;;;;;;5.20;75.61;95447.72;5020491;28;20214;-68
2023/01/15 06:08:58;;;;;;;16.33;10.50;;;;;;;5.36;75.09;95461.91;5021025;28;20295;-69
2023/01/15 06:11:24;;;;;;;13.25;9.88;;;;;;;5.41;74.83;95462.72;5019557;28;21520;-68
2023/01/15 06:13:51;;;;;;;14.15;10.25;;;;;;;5.52;74.80;95461.78;5020077;28;20708;-69
2023/01/15 06:16:18;;;;;;;40.75;21.83;;;;;;;5.59;74.70;95460.88;5019162;28;20234;-67
2023/01/15 06:18:45;;;;;;;44.60;25.02;;;;;;;5.71;74.20;95454.03;5021966;28;20225;-66
2023/01/15 06:21:13;;;;;;;26.98;15.15;;;;;;;5.74;75.19;95458.22;5020937;28;20737;-68
2023/01/15 06:23:41;;;;;;;25.73;13.85;;;;;;;5.76;74.56;95454.00;5020943;28;20214;-68
2023/01/15 06:26:11;;;;;;;20.50;11.88;;;;;;;5.84;74.44;95459.84;5021070;28;20202;-68
2023/01/15 06:28:38;;;;;;;18.02;10.90;;;;;;;5.84;74.33;95456.47;5008247;28;20280;-71
2023/01/15 06:31:06;;;;;;;25.80;11.50;;;;;;;5.90;74.52;95449.72;5010099;28;20211;-69
2023/01/15 06:33:33;;;;;;;14.13;11.13;;;;;;;6.04;74.43;95450.41;5009612;28;20210;-68
2023/01/15 06:36:03;;;;;;;22.13;12.73;;;;;;;6.11;74.89;95453.72;5007632;28;20616;-69
2023/01/15 06:38:30;;;;;;;23.48;12.05;;;;;;;6.25;74.64;95451.88;5007665;28;20202;-68
2023/01/15 06:40:59;;;;;;;16.35;11.75;;;;;;;6.34;74.18;95444.22;5008841;28;20214;-69
2023/01/15 06:48:55;;;;;;;30.30;16.48;;;;;;;6.56;73.18;95451.53;5008312;28;20700;-68
2023/01/15 06:51:21;;;;;;;30.13;17.08;;;;;;;6.62;72.25;95456.53;5008650;28;20203;-69
2023/01/15 06:53:48;;;;;;;26.77;17.65;;;;;;;6.67;71.77;95460.69;5007878;28;20729;-68
2023/01/15 06:56:15;;;;;;;27.58;17.25;;;;;;;6.73;71.33;95450.47;5006782;28;20227;-68
2023/01/15 06:58:44;;;;;;;40.92;23.63;;;;;;;6.92;70.07;95446.03;5008757;28;20215;-69
2023/01/15 07:01:12;;;;;;;50.20;26.50;;;;;;;6.96;70.73;95450.19;5009059;28;20199;-67
2023/01/15 07:03:38;;;;;;;42.00;24.50;;;;;;;7.12;70.39;95456.72;5008073;28;20216;-68
2023/01/15 07:06:07;;;;;;;46.75;26.33;;;;;;;7.25;70.43;95452.31;5007879;28;20230;-68
2023/01/15 07:08:33;;;;;;;63.47;33.28;;;;;;;7.41;70.36;95447.88;5007081;28;20277;-69
2023/01/15 07:11:03;;;;;;;56.38;31.10;;;;;;;7.62;69.09;95452.59;5008729;28;22160;-68
2023/01/15 07:13:30;;;;;;;65.30;32.08;;;;;;;7.76;69.42;95457.41;5009161;28;20243;-67
2023/01/15 07:16:00;;;;;;;52.28;28.67;;;;;;;7.92;67.84;95448.69;5008009;28;20704;-70
2023/01/15 07:18:27;;;;;;;39.67;23.30;;;;;;;7.95;67.64;95430.09;5007179;28;20210;-67
2023/01/15 07:20:55;;;;;;;69.05;36.97;;;;;;;8.15;67.05;95446.63;5009333;28;20273;-67
2023/01/15 07:23:22;;;;;;;44.17;25.30;;;;;;;8.35;66.06;95460.66;5008281;28;20203;-68
2023/01/15 07:25:49;;;;;;;38.05;21.90;;;;;;;8.46;65.52;95467.16;5008342;28;20269;-68
2023/01/15 07:28:15;;;;;;;31.48;17.38;;;;;;;8.55;64.81;95463.63;5006253;28;20219;-68
2023/01/15 07:30:42;;;;;;;26.98;17.77;;;;;;;8.53;64.23;95470.41;5007387;28;20654;-68
2023/01/15 07:33:11;;;;;;;26.58;17.55;;;;;;;8.59;64.74;95465.25;5008176;28;20219;-67
2023/01/15 07:35:38;;;;;;;31.73;17.40;;;;;;;8.53;65.16;95476.31;5007758;28;20217;-68
2023/01/15 07:38:05;;;;;;;33.00;20.40;;;;;;;8.56;64.67;95465.28;5005425;28;20412;-68
2023/01/15 07:40:31;;;;;;;38.30;21.15;;;;;;;8.65;63.94;95470.19;5007495;28;20227;-67
2023/01/15 07:51:14;;;;;;;25.23;14.73;;;;;;;9.99;59.66;95462.09;5007591;28;20217;-67
2023/01/15 07:53:41;;;;;;;18.95;13.95;;;;;;;11.01;56.93;95456.00;5006081;28;20561;-69
2023/01/15 07:56:08;;;;;;;29.13;16.45;;;;;;;12.04;53.86;95455.38;5005994;28;20316;-68
2023/01/15 07:58:35;;;;;;;22.63;15.55;;;;;;;12.64;51.89;95443.94;5004026;28;20711;-67
2023/01/15 08:01:02;;;;;;;27.85;16.63;;;;;;;13.26;50.26;95440.84;5005435;28;20207;-68
2023/01/15 08:03:30;;;;;;;22.95;13.95;;;;;;;13.83;48.43;95439.47;5004978;28;20207;-68
2023/01/15 08:05:57;;;;;;;21.70;13.48;;;;;;;13.89;47.25;95434.09;5006349;28;22185;-68
2023/01/15 08:08:23;;;;;;;20.80;13.38;;;;;;;13.83;47.74;95435.19;5005131;28;20203;-67
2023/01/15 08:16:18;;;;;;;20.13;12.73;;;;;;;14.93;45.46;95451.00;5005590;28;20295;-67
2023/01/15 08:18:46;;;;;;;20.15;14.25;;;;;;;15.64;43.88;95446.91;5005068;28;20326;-68
2023/01/15 08:21:15;;;;;;;23.73;13.98;;;;;;;16.24;41.82;95450.81;5007101;28;20210;-68
2023/01/15 08:23:44;;;;;;;22.23;14.10;;;;;;;17.12;40.27;95449.75;5006246;28;20316;-69
2023/01/15 08:26:11;;;;;;;19.92;14.48;;;;;;;17.32;39.65;95446.97;5006691;28;20199;-67
2023/01/15 08:28:38;;;;;;;13.82;11.02;;;;;;;17.36;39.07;95445.88;5003416;28;20211;-66
2023/01/15 08:31:07;;;;;;;13.38;9.35;;;;;;;17.04;38.88;95447.63;5007324;28;20689;-67
2023/01/15 08:33:34;;;;;;;9.30;8.40;;;;;;;16.74;39.46;95449.22;5007285;28;20231;-67
2023/01/15 08:36:02;;;;;;;12.32;7.20;;;;;;;16.20;40.17;95459.56;5006786;28;20307;-69
2023/01/15 08:38:28;;;;;;;8.25;7.43;;;;;;;16.11;40.62;95447.19;5005664;28;20207;-68
2023/01/15 08:40:58;;;;;;;11.07;9.90;;;;;;;16.02;40.81;95447.66;5006206;28;20212;-67
2023/01/15 08:43:26;;;;;;;15.55;11.68;;;;;;;15.93;40.85;95455.78;5006199;28;21771;-67
2023/01/15 08:45:53;;;;;;;11.93;10.13;;;;;;;15.52;41.50;95450.03;5005647;28;20612;-68
2023/01/15 08:48:19;;;;;;;13.23;9.13;;;;;;;15.07;42.21;95452.97;5005289;28;20672;-68
2023/01/15 08:50:46;;;;;;;10.27;9.30;;;;;;;14.85;42.95;95438.53;5005775;28;20458;-68
2023/01/15 08:53:14;;;;;;;13.65;9.48;;;;;;;14.45;43.83;95454.78;5005510;28;20213;-69
2023/01/15 08:55:41;;;;;;;11.32;9.77;;;;;;;14.40;44.31;95453.28;5005830;28;20753;-68
2023/01/15 08:58:08;;;;;;;10.68;9.60;;;;;;;14.59;43.86;95446.56;5005674;28;20239;-68
2023/01/15 09:00:34;;;;;;;15.50;11.70;;;;;;;14.54;44.29;95448.47;5005917;28;20211;-69
2023/01/15 09:03:01;;;;;;;10.60;8.80;;;;;;;14.68;44.07;95445.31;5006270;28;20482;-69
2023/01/15 09:05:28;;;;;;;9.48;8.48;;;;;;;14.86;43.09;95445.31;5006299;28;20217;-68
2023/01/15 09:07:54;;;;;;;10.68;9.48;;;;;;;14.67;43.10;95448.75;5005578;28;20755;-67
2023/01/15 09:10:23;;;;;;;11.80;9.65;;;;;;;13.87;44.38;95441.00;5005092;28;20771;-67
2023/01/15 09:12:50;;;;;;;29.20;19.67;;;;;;;13.53;45.58;95446.63;5006927;28;20785;-69
2023/01/15 09:15:17;;;;;;;13.30;10.63;;;;;;;13.42;46.14;95436.81;5006667;28;20266;-68
2023/01/15 09:17:44;;;;;;;12.65;10.13;;;;;;;13.42;45.63;95438.53;5006920;28;20234;-68
2023/01/15 09:20:13;;;;;;;11.48;10.35;;;;;;;12.36;47.35;95439.00;5005371;28;20211;-67
2023/01/15 09:22:39;;;;;;;14.13;11.35;;;;;;;11.30;50.42;95438.19;5005533;28;21777;-69
2023/01/15 09:25:07;;;;;;;17.10;11.88;;;;;;;10.92;51.81;95441.84;5006082;28;20696;-68
2023/01/15 09:27:36;;;;;;;19.25;12.65;;;;;;;10.58;52.66;95429.25;5006593;28;20199;-67
2023/01/15 09:30:05;;;;;;;18.33;12.75;;;;;;;10.70;53.53;95433.16;5005764;28;20211;-66
2023/01/15 09:32:32;;;;;;;17.92;12.98;;;;;;;10.86;53.03;95427.63;5006255;28;20294;-68
2023/01/15 09:35:00;;;;;;;16.92;12.10;;;;;;;10.81;52.92;95424.38;5006019;28;20581;-68
2023/01/15 09:37:26;;;;;;;15.70;11.10;;;;;;;10.50;53.35;95424.38;5006172;28;21011;-68
2023/01/15 09:39:53;;;;;;;17.83;11.75;;;;;;;9.80;55.11;95413.50;5004507;28;20230;-67
2023/01/15 09:42:35;;;;;;;23.55;13.38;;;;;;;9.70;55.79;95419.66;5005944;28;20700;-70
2023/01/15 09:45:16;;;;;;;18.50;12.88;;;;;;;9.78;55.89;95411.88;5005285;28;20235;-68
2023/01/15 09:48:03;;;;;;;16.77;12.25;;;;;;;9.80;55.67;95405.06;5004921;28;20647;-68
2023/01/15 09:50:43;;;;;;;19.52;12.43;;;;;;;9.63;56.28;95397.88;5004889;28;21207;-67
2023/01/15 09:53:36;;;;;;;18.63;11.45;;;;;;;9.26;56.89;95402.97;5004853;28;20458;-68
2023/01/15 09:56:05;;;;;;;18.40;12.88;;;;;;;8.51;59.04;95393.63;5005948;28;20265;-68
2023/01/15 09:58:35;;;;;;;20.73;13.40;;;;;;;8.49;60.03;95390.28;5005097;28;20253;-68
2023/01/15 10:01:03;;;;;;;21.35;13.02;;;;;;;8.60;59.91;95385.84;5006431;28;20203;-67
2023/01/15 10:03:36;;;;;;;26.05;14.02;;;;;;;8.67;59.75;95381.47;5007541;28;20203;-68
2023/01/15 10:06:12;;;;;;;20.83;13.38;;;;;;;8.71;59.34;95378.00;5008799;28;20234;-71
2023/01/15 10:08:44;;;;;;;19.45;13.80;;;;;;;8.89;59.46;95366.66;5008626;28;20210;-68
2023/01/15 10:14:39;;;;;;;27.35;15.70;;;;;;;8.74;60.41;95361.03;5009741;28;20213;-69
2023/01/15 10:17:21;;;;;;;26.85;16.58;;;;;;;8.77;60.65;95355.91;5008694;28;21806;-67
2023/01/15 10:19:48;;;;;;;24.58;14.32;;;;;;;8.79;61.62;95351.63;5009372;28;20203;-68
2023/01/15 10:22:27;;;;;;;26.80;17.55;;;;;;;8.84;61.79;95349.84;5006365;28;20217;-69
2023/01/15 10:24:57;;;;;;;20.85;14.85;;;;;;;8.77;61.28;95348.31;5007012;28;20199;-69
2023/01/15 10:27:28;;;;;;;27.80;16.95;;;;;;;8.72;61.78;95350.09;5007033;28;20888;-68
2023/01/15 10:30:01;;;;;;;30.42;17.08;;;;;;;8.63;62.49;95345.25;5006132;28;20693;-67
2023/01/15 10:32:40;;;;;;;26.80;16.50;;;;;;;8.47;62.18;95328.69;5005840;28;20221;-66
2023/01/15 10:35:21;;;;;;;23.13;14.13;;;;;;;8.20;62.26;95335.13;5008019;28;20214;-68
2023/01/15 10:37:53;;;;;;;26.00;15.63;;;;;;;7.97;63.24;95324.63;5003936;28;20227;-68
2023/01/15 10:40:59;;;;;;;24.13;14.75;;;;;;;8.14;62.67;95325.13;5007335;28;20222;-67
2023/01/15 10:43:35;;;;;;;23.92;14.65;;;;;;;8.28;62.58;95314.72;5004930;28;20659;-69
2023/01/15 10:46:11;;;;;;;22.55;14.65;;;;;;;8.18;62.11;95317.44;5005230;28;20210;-68
2023/01/15 10:48:42;;;;;;;22.80;13.20;;;;;;;8.16;62.63;95311.59;5004509;28;20350;-68
2023/01/15 10:51:17;;;;;;;16.00;11.45;;;;;;;8.13;62.36;95304.06;5007228;28;20348;-68
2023/01/15 10:53:47;;;;;;;19.13;11.88;;;;;;;8.14;62.41;95299.84;5005284;28;20206;-67
2023/01/15 10:56:21;;;;;;;17.00;10.73;;;;;;;8.26;62.80;95293.66;5007019;28;20234;-69
2023/01/15 10:58:54;;;;;;;21.27;11.98;;;;;;;8.50;61.91;95288.09;5005392;28;20230;-71
2023/01/15 11:01:25;;;;;;;23.35;11.30;;;;;;;8.53;62.24;95282.97;5005733;28;20230;-71
2023/01/15 11:03:54;;;;;;;17.17;10.55;;;;;;;8.64;62.21;95281.06;5006828;28;20684;-66
2023/01/15 11:06:23;;;;;;;12.75;9.80;;;;;;;8.51;61.12;95270.34;5007240;28;20211;-71
2023/01/15 11:08:53;;;;;;;18.55;10.90;;;;;;;8.71;61.04;95276.66;5006025;28;20315;-67
2023/01/15 11:19:37;;;;;;;16.08;11.55;;;;;;;8.50;63.70;95258.53;5003253;28;20214;-68
2023/01/15 11:22:08;;;;;;;20.45;12.68;;;;;;;9.01;62.28;95253.13;5007019;28;20203;-69
2023/01/15 11:24:37;;;;;;;18.38;12.70;;;;;;;9.31;61.34;95254.06;5006458;28;20941;-66
2023/01/15 11:27:06;;;;;;;17.17;12.85;;;;;;;9.56;60.60;95249.19;5005975;28;20207;-68
2023/01/15 11:29:36;;;;;;;21.27;13.10;;;;;;;9.41;61.08;95245.34;5006186;28;20214;-67
2023/01/15 11:32:04;;;;;;;18.60;11.93;;;;;;;8.85;61.98;95240.00;5007081;28;20213;-68
2023/01/15 11:34:30;;;;;;;14.30;10.50;;;;;;;8.53;62.30;95242.44;5007391;28;20215;-68
2023/01/15 11:37:05;;;;;;;16.23;10.18;;;;;;;7.91;63.51;95221.00;5007944;28;20231;-69
2023/01/15 11:39:32;;;;;;;13.90;10.43;;;;;;;7.97;64.71;95231.81;5007412;28;20226;-69
2023/01/15 11:53:13;;;;;;;13.50;9.25;;;;;;;8.67;61.93;95214.25;5007122;28;20268;-68
2023/01/15 11:55:40;;;;;;;13.65;9.30;;;;;;;8.43;62.37;95208.88;5007806;28;20217;-69
2023/01/15 11:58:09;;;;;;;18.80;11.57;;;;;;;8.35;62.82;95207.41;5007336;28;20645;-68
2023/01/15 12:00:42;;;;;;;15.02;10.25;;;;;;;8.28;63.39;95210.91;5006604;28;20714;-68
2023/01/15 12:03:14;;;;;;;17.33;9.55;;;;;;;8.24;63.45;95206.78;5007300;28;20203;-68
2023/01/15 12:05:47;;;;;;;13.82;10.15;;;;;;;8.47;63.53;95194.47;5006482;28;20617;-67
2023/01/15 12:08:24;;;;;;;16.08;10.48;;;;;;;8.64;62.96;95199.97;5007165;28;20209;-68
2023/01/15 12:11:05;;;;;;;13.45;9.57;;;;;;;8.62;62.46;95194.13;5006287;28;21102;-70
2023/01/15 12:13:42;;;;;;;15.60;11.00;;;;;;;8.40;64.07;95190.44;5006871;28;20203;-67